Time;durP1;ratioP1;P1;durP2;ratioP2;P2;SDS_P1;SDS_P2;PMS_P1;PMS_P2;Temp;Humidity;BMP_temperature;BMP_pressure;BME280_temperature;BME280_humidity;BME280_pressure;Samples;Min_cycle;Max_cycle;Signal;HPM_P1;HPM_P2
2022/01/18 00:00:40;;;;;;;31.15;4.85;;;7.80;99.90;;;;;;5973953;23;20117;-95
2022/01/18 00:03:06;;;;;;;32.90;4.93;;;7.80;99.90;;;;;;5975474;23;20537;-93
2022/01/18 00:05:34;;;;;;;28.95;5.57;;;7.80;99.90;;;;;;5971728;23;20547;-93
2022/01/18 00:08:00;;;;;;;34.20;5.30;;;7.90;99.90;;;;;;5944080;23;20121;-94
2022/01/18 00:10:28;;;;;;;34.72;4.93;;;7.90;99.90;;;;;;5965278;23;20137;-94
2022/01/18 00:13:07;;;;;;;33.63;5.60;;;7.90;99.90;;;;;;5943670;23;20880;-92
2022/01/18 00:23:17;;;;;;;32.58;5.85;;;7.90;99.90;;;;;;5967439;23;20521;-93
2022/01/18 00:25:53;;;;;;;39.38;6.97;;;7.90;99.90;;;;;;5941484;23;20027;-93
2022/01/18 00:28:21;;;;;;;30.98;5.38;;;7.90;99.90;;;;;;5960248;23;20118;-94
2022/01/18 00:36:03;;;;;;;34.97;5.65;;;7.90;99.90;;;;;;5965332;23;20564;-94
2022/01/18 00:38:43;;;;;;;35.08;5.35;;;7.90;99.90;;;;;;5935758;23;20114;-93
2022/01/18 00:41:12;;;;;;;41.45;5.93;;;7.90;99.90;;;;;;5938791;23;20023;-92
2022/01/18 00:43:38;;;;;;;31.33;5.30;;;7.90;99.90;;;;;;5941087;23;20213;-93
2022/01/18 00:46:05;;;;;;;38.63;5.85;;;7.90;99.90;;;;;;5919185;23;20271;-93
2022/01/18 00:48:33;;;;;;;36.60;6.00;;;7.90;99.90;;;;;;5917333;23;20037;-92
2022/01/18 00:50:59;;;;;;;40.35;6.15;;;7.90;99.90;;;;;;5942687;23;20015;-90
2022/01/18 00:53:26;;;;;;;34.25;5.88;;;7.90;99.90;;;;;;5935032;23;20188;-91
2022/01/18 00:58:30;;;;;;;43.65;6.28;;;7.90;99.90;;;;;;5934410;23;20564;-91
2022/01/18 01:00:56;;;;;;;39.38;6.30;;;7.90;99.90;;;;;;5934713;23;20058;-93
2022/01/18 01:03:32;;;;;;;36.03;6.35;;;7.90;99.90;;;;;;5915680;23;20538;-93
2022/01/18 01:05:59;;;;;;;38.17;6.63;;;7.90;99.90;;;;;;5945809;23;20570;-93
2022/01/18 01:08:24;;;;;;;36.17;5.93;;;7.90;99.90;;;;;;5923074;23;20359;-94
2022/01/18 01:10:50;;;;;;;40.08;6.65;;;7.90;99.90;;;;;;5942155;23;20361;-95
2022/01/18 01:46:54;;;;;;;39.97;6.50;;;7.90;99.90;;;;;;5964782;23;20096;-94
2022/01/18 01:49:24;;;;;;;37.35;6.45;;;7.80;99.90;;;;;;5999809;23;20471;-93
2022/01/18 01:51:49;;;;;;;34.75;6.65;;;7.90;99.90;;;;;;5998976;23;20017;-94
2022/01/18 01:54:19;;;;;;;40.17;7.05;;;7.80;99.90;;;;;;5999433;23;20544;-94
2022/01/18 01:56:45;;;;;;;43.33;7.13;;;7.80;99.90;;;;;;5990904;23;20476;-94
2022/01/18 01:59:12;;;;;;;39.15;6.80;;;7.80;99.90;;;;;;6000038;23;20383;-93
2022/01/18 02:01:46;;;;;;;36.38;6.47;;;7.80;99.90;;;;;;6002524;23;20512;-93
2022/01/18 02:04:13;;;;;;;38.95;5.80;;;7.80;99.90;;;;;;5999743;23;20444;-94
2022/01/18 02:06:42;;;;;;;39.45;6.78;;;7.80;99.90;;;;;;6001732;23;20029;-92
2022/01/18 02:09:11;;;;;;;38.80;6.13;;;7.80;99.90;;;;;;6000238;23;20021;-93
2022/01/18 02:11:37;;;;;;;36.13;5.65;;;7.70;99.90;;;;;;5998246;23;20602;-93
2022/01/18 02:14:12;;;;;;;39.95;6.78;;;7.70;99.90;;;;;;5974383;23;20097;-95
2022/01/18 02:22:10;;;;;;;35.45;6.90;;;7.70;99.90;;;;;;6026968;23;20034;-94
2022/01/18 02:24:42;;;;;;;36.42;6.50;;;7.60;99.90;;;;;;5975583;23;20416;-94
2022/01/18 02:27:07;;;;;;;35.72;6.60;;;7.70;99.90;;;;;;5978131;23;20108;-94
2022/01/18 02:29:33;;;;;;;38.40;7.00;;;7.60;99.90;;;;;;6004142;23;20487;-94
2022/01/18 02:32:02;;;;;;;34.67;5.80;;;7.60;99.90;;;;;;5997428;23;20018;-93
2022/01/18 02:34:31;;;;;;;35.88;6.85;;;7.60;99.90;;;;;;5978698;23;20445;-94
2022/01/18 02:37:03;;;;;;;29.23;5.70;;;7.50;99.90;;;;;;5999504;23;20464;-92
2022/01/18 02:39:30;;;;;;;38.75;6.22;;;7.50;99.90;;;;;;5996803;23;20541;-94
2022/01/18 02:42:05;;;;;;;30.58;5.72;;;7.50;99.90;;;;;;6001921;23;20044;-94
2022/01/18 02:44:33;;;;;;;30.48;5.20;;;7.50;99.90;;;;;;6001268;23;20276;-94
2022/01/18 02:47:03;;;;;;;32.35;6.30;;;7.40;99.90;;;;;;5976775;23;20364;-93
2022/01/18 02:49:33;;;;;;;30.98;5.55;;;7.50;99.90;;;;;;5995937;23;20014;-94
2022/01/18 02:51:59;;;;;;;32.67;5.85;;;7.50;99.90;;;;;;6001780;23;20924;-93
2022/01/18 02:54:25;;;;;;;31.42;5.70;;;7.40;99.90;;;;;;5998525;23;20539;-95
2022/01/18 02:56:57;;;;;;;37.13;6.03;;;7.40;99.90;;;;;;6002295;23;20033;-95
2022/01/18 02:59:38;;;;;;;34.35;5.68;;;7.50;99.90;;;;;;6003878;23;20029;-94
2022/01/18 03:05:07;;;;;;;36.40;6.00;;;7.40;99.90;;;;;;6021919;23;20104;-94
2022/01/18 03:07:50;;;;;;;34.25;5.93;;;7.40;99.90;;;;;;6006244;23;20022;-93
2022/01/18 03:10:23;;;;;;;39.75;6.45;;;7.40;99.90;;;;;;6000628;23;20825;-93
2022/01/18 03:12:50;;;;;;;31.70;6.07;;;7.40;99.90;;;;;;5998639;23;20704;-94
2022/01/18 03:15:16;;;;;;;36.80;6.78;;;7.40;99.90;;;;;;5978862;23;20129;-94
2022/01/18 03:17:44;;;;;;;39.90;7.63;;;7.40;99.90;;;;;;6005165;23;20380;-93
2022/01/18 03:20:16;;;;;;;42.28;8.23;;;7.30;99.90;;;;;;5981191;23;20041;-94
2022/01/18 03:23:07;;;;;;;43.55;8.07;;;7.30;99.90;;;;;;6001596;23;20081;-94
2022/01/18 03:28:06;;;;;;;34.40;7.80;;;7.20;99.90;;;;;;6027430;23;20109;-93
2022/01/18 03:30:39;;;;;;;33.60;8.48;;;7.20;99.90;;;;;;5997800;23;20049;-95
2022/01/18 03:33:08;;;;;;;37.10;7.13;;;7.10;99.90;;;;;;6003390;23;20025;-93
2022/01/18 03:35:34;;;;;;;36.20;7.07;;;7.20;99.90;;;;;;6003008;23;20079;-94
2022/01/18 03:38:00;;;;;;;32.03;6.50;;;7.10;99.90;;;;;;6000542;23;20364;-94
2022/01/18 03:40:30;;;;;;;29.58;6.72;;;7.10;99.90;;;;;;6006878;23;20088;-94
2022/01/18 03:42:59;;;;;;;30.25;7.07;;;7.10;99.90;;;;;;6002781;23;20245;-94
2022/01/18 03:45:32;;;;;;;35.58;7.85;;;7.10;99.90;;;;;;6001500;23;20409;-94
2022/01/18 03:48:03;;;;;;;33.22;7.90;;;7.10;99.90;;;;;;6022940;23;20302;-93
2022/01/18 03:50:30;;;;;;;36.05;8.05;;;7.10;99.90;;;;;;5977945;23;20175;-94
2022/01/18 03:52:55;;;;;;;36.63;8.70;;;7.00;99.90;;;;;;5998778;23;20433;-93
2022/01/18 03:55:22;;;;;;;31.58;9.05;;;7.00;99.90;;;;;;5979718;23;20381;-94
2022/01/18 03:57:49;;;;;;;39.15;8.82;;;7.00;99.90;;;;;;6003115;23;20129;-95
2022/01/18 04:00:26;;;;;;;31.75;8.48;;;7.00;99.90;;;;;;5996030;23;20217;-94
2022/01/18 04:02:53;;;;;;;33.90;8.18;;;7.10;99.90;;;;;;5994822;23;20717;-94
2022/01/18 04:05:22;;;;;;;31.83;7.75;;;7.10;99.90;;;;;;6000726;23;20017;-94
2022/01/18 04:07:49;;;;;;;33.70;7.90;;;7.10;99.90;;;;;;6000310;23;20471;-93
2022/01/18 04:10:18;;;;;;;38.65;8.70;;;7.10;99.90;;;;;;6000724;23;20018;-93
2022/01/18 04:12:47;;;;;;;29.15;7.72;;;7.10;99.90;;;;;;5999151;23;20080;-93
2022/01/18 04:15:15;;;;;;;33.05;8.48;;;7.10;99.90;;;;;;6000405;23;20089;-95
2022/01/18 04:28:44;;;;;;;33.03;8.80;;;7.00;99.90;;;;;;6025764;23;20169;-94
2022/01/18 04:31:11;;;;;;;31.73;8.77;;;7.00;99.90;;;;;;6002464;23;20092;-96
2022/01/18 04:33:40;;;;;;;33.35;8.70;;;7.00;99.90;;;;;;6002363;23;20026;-95
2022/01/18 04:36:09;;;;;;;31.88;8.35;;;7.00;99.90;;;;;;6004295;23;20603;-95
2022/01/18 04:38:39;;;;;;;30.98;7.93;;;7.00;99.90;;;;;;5993899;23;20025;-92
2022/01/18 04:41:09;;;;;;;33.03;8.40;;;7.00;99.90;;;;;;6001057;23;20183;-93
2022/01/18 04:48:53;;;;;;;28.50;7.65;;;6.90;99.90;;;;;;6023357;23;20125;-91
2022/01/18 04:51:22;;;;;;;28.40;7.78;;;6.90;99.90;;;;;;6000109;23;20122;-92
2022/01/18 04:53:57;;;;;;;27.52;6.90;;;6.90;99.90;;;;;;5979010;23;20394;-92
2022/01/18 04:57:51;;;;;;;27.13;7.40;;;6.90;99.90;;;;;;6022516;23;20018;-92
2022/01/18 04:59:18;;;;;;;36.50;7.25;;;6.90;99.90;;;;;;6027045;23;20064;-93
2022/01/18 05:01:49;;;;;;;30.95;7.28;;;6.80;99.90;;;;;;6003723;23;20476;-93
2022/01/18 05:04:15;;;;;;;26.77;7.72;;;6.80;99.90;;;;;;6003408;23;20376;-93
2022/01/18 05:06:43;;;;;;;26.55;6.80;;;6.80;99.90;;;;;;5996991;23;20367;-94
2022/01/18 05:09:26;;;;;;;23.83;7.10;;;6.90;99.90;;;;;;5974034;23;20025;-93
2022/01/18 05:12:07;;;;;;;24.30;6.30;;;6.80;99.90;;;;;;6000725;23;20032;-91
2022/01/18 05:14:35;;;;;;;28.48;6.38;;;6.80;99.90;;;;;;5979506;23;20841;-93
2022/01/18 05:17:20;;;;;;;26.98;7.00;;;6.80;99.90;;;;;;6025287;23;20029;-93
2022/01/18 05:20:00;;;;;;;26.00;6.85;;;6.90;99.90;;;;;;5999871;23;20826;-93
2022/01/18 05:25:10;;;;;;;21.17;6.10;;;6.90;99.90;;;;;;6004786;23;20033;-93
2022/01/18 05:27:36;;;;;;;28.05;6.95;;;6.80;99.90;;;;;;6005373;23;20036;-93
2022/01/18 05:30:21;;;;;;;28.05;8.23;;;6.90;99.90;;;;;;6002220;23;20540;-93
2022/01/18 05:32:47;;;;;;;30.98;7.75;;;6.90;99.90;;;;;;5981211;23;20863;-93
2022/01/18 05:35:19;;;;;;;27.83;7.57;;;6.80;99.90;;;;;;5998188;23;20033;-93
2022/01/18 05:37:46;;;;;;;30.30;7.38;;;6.90;99.90;;;;;;5976999;23;20171;-92
2022/01/18 05:40:12;;;;;;;26.98;7.80;;;6.80;99.90;;;;;;5974950;23;20538;-93
2022/01/18 05:42:37;;;;;;;28.42;7.35;;;6.80;99.90;;;;;;5995674;23;20030;-93
2022/01/18 05:45:04;;;;;;;24.95;6.90;;;6.80;99.90;;;;;;5979052;23;20584;-93
2022/01/18 05:47:30;;;;;;;27.88;7.05;;;6.80;99.90;;;;;;5997669;23;20026;-92
2022/01/18 05:50:02;;;;;;;34.42;9.13;;;6.80;99.90;;;;;;6020290;23;20029;-93
2022/01/18 05:52:28;;;;;;;25.23;6.75;;;6.80;99.90;;;;;;5998193;23;20091;-94
2022/01/18 05:54:54;;;;;;;25.67;6.85;;;6.90;99.90;;;;;;6000326;23;20025;-92
2022/01/18 05:57:29;;;;;;;24.35;6.68;;;6.90;99.90;;;;;;5994970;23;20070;-92
2022/01/18 06:00:01;;;;;;;27.55;6.38;;;6.90;99.90;;;;;;6001161;23;20367;-93
2022/01/18 06:02:44;;;;;;;26.15;6.70;;;6.90;99.90;;;;;;5975090;23;20873;-92
2022/01/18 06:07:55;;;;;;;22.50;6.00;;;6.90;99.90;;;;;;6005894;23;20030;-93
2022/01/18 06:10:28;;;;;;;24.77;6.38;;;6.80;99.90;;;;;;5979092;23;20033;-93
2022/01/18 06:12:54;;;;;;;23.13;6.20;;;6.90;99.90;;;;;;5976851;23;20594;-92
2022/01/18 06:15:20;;;;;;;22.02;5.75;;;6.80;99.90;;;;;;6020916;23;20026;-92
2022/01/18 06:17:46;;;;;;;24.05;5.70;;;6.80;99.90;;;;;;6000503;23;20566;-94
2022/01/18 06:20:12;;;;;;;25.40;6.18;;;6.80;99.90;;;;;;5995233;23;20029;-94
2022/01/18 06:22:38;;;;;;;23.35;5.72;;;6.80;99.90;;;;;;5999589;23;20026;-93
2022/01/18 06:25:06;;;;;;;21.30;5.80;;;6.80;99.90;;;;;;5998524;23;20116;-94
2022/01/18 06:27:32;;;;;;;26.48;6.00;;;6.90;99.90;;;;;;5998598;23;20018;-92
2022/01/18 06:29:58;;;;;;;27.50;6.32;;;6.90;99.90;;;;;;6000768;23;20097;-93
2022/01/18 06:32:26;;;;;;;24.63;6.15;;;6.90;99.90;;;;;;5974636;23;20835;-94
2022/01/18 06:34:52;;;;;;;30.33;6.68;;;6.90;99.90;;;;;;6024384;23;20450;-94
2022/01/18 06:37:22;;;;;;;22.65;6.55;;;6.90;99.90;;;;;;5979690;23;20028;-94
2022/01/18 06:39:47;;;;;;;25.60;6.72;;;7.00;99.90;;;;;;5975542;23;20349;-93
2022/01/18 06:42:14;;;;;;;26.38;6.50;;;7.00;99.90;;;;;;5999095;23;20018;-94
2022/01/18 06:44:42;;;;;;;23.15;6.20;;;7.00;99.90;;;;;;5980311;23;20507;-94
2022/01/18 06:47:11;;;;;;;22.27;6.30;;;6.90;99.90;;;;;;6001144;23;20182;-94
2022/01/18 06:49:37;;;;;;;21.98;6.10;;;6.90;99.90;;;;;;5997652;23;20022;-94
2022/01/18 06:52:03;;;;;;;23.92;5.90;;;6.90;99.90;;;;;;5997523;23;20466;-94
2022/01/18 06:54:29;;;;;;;25.60;6.30;;;7.00;99.90;;;;;;6024212;23;20026;-94
2022/01/18 06:57:03;;;;;;;25.00;6.05;;;7.00;99.90;;;;;;6003608;23;20242;-94
2022/01/18 06:59:34;;;;;;;25.42;5.40;;;7.00;99.90;;;;;;6004588;23;20022;-94
2022/01/18 07:02:03;;;;;;;20.95;5.07;;;6.90;99.90;;;;;;6003081;23;20741;-96
2022/01/18 07:04:29;;;;;;;24.67;5.78;;;6.90;99.90;;;;;;5980117;23;20529;-95
2022/01/18 07:06:55;;;;;;;23.25;5.72;;;6.90;99.90;;;;;;6002712;23;20533;-94
2022/01/18 07:09:24;;;;;;;23.55;6.47;;;6.90;99.90;;;;;;5999853;23;20048;-92
2022/01/18 07:11:56;;;;;;;24.55;5.93;;;6.80;99.90;;;;;;6002684;23;20025;-95
2022/01/18 07:14:23;;;;;;;21.60;6.22;;;6.80;99.90;;;;;;6000194;23;20029;-94
2022/01/18 07:17:02;;;;;;;23.40;6.10;;;6.90;99.90;;;;;;5995785;23;20025;-95
2022/01/18 07:19:39;;;;;;;25.05;6.30;;;6.90;99.90;;;;;;6005851;23;20018;-95
2022/01/18 07:25:48;;;;;;;24.73;6.28;;;6.90;99.90;;;;;;6068475;23;20017;-95
2022/01/18 07:28:17;;;;;;;22.23;6.35;;;6.90;99.90;;;;;;6005781;23;20165;-94
2022/01/18 07:30:47;;;;;;;25.67;6.28;;;6.90;99.90;;;;;;6004089;23;20022;-95
2022/01/18 07:33:16;;;;;;;26.42;6.40;;;6.80;99.90;;;;;;6004711;23;20033;-94
2022/01/18 07:35:45;;;;;;;28.05;6.47;;;6.90;99.90;;;;;;5998818;23;20368;-95
2022/01/18 07:38:17;;;;;;;20.73;5.65;;;6.80;99.90;;;;;;5994549;23;20049;-95
2022/01/18 07:40:45;;;;;;;25.75;5.60;;;6.80;99.90;;;;;;5993668;23;20018;-93
2022/01/18 07:43:15;;;;;;;20.58;5.90;;;6.70;99.90;;;;;;5999315;23;20022;-95
2022/01/18 07:45:50;;;;;;;23.40;6.25;;;6.80;99.90;;;;;;5993059;23;20030;-95
2022/01/18 07:48:21;;;;;;;24.98;6.43;;;6.90;99.90;;;;;;5993587;23;20797;-93
2022/01/18 07:50:47;;;;;;;25.15;6.55;;;6.80;99.90;;;;;;5999056;23;20077;-94
2022/01/18 07:53:13;;;;;;;24.45;6.00;;;6.80;99.90;;;;;;6001250;23;20340;-96
2022/01/18 07:55:39;;;;;;;24.20;6.63;;;6.80;99.90;;;;;;6007258;23;20449;-94
2022/01/18 07:58:05;;;;;;;26.92;6.47;;;6.70;99.90;;;;;;5995324;23;20036;-95
2022/01/18 08:00:31;;;;;;;20.38;6.13;;;6.80;99.90;;;;;;5997038;23;20025;-96
2022/01/18 08:02:59;;;;;;;27.23;6.45;;;6.70;99.90;;;;;;6002455;23;20100;-95
2022/01/18 08:05:25;;;;;;;23.45;6.80;;;6.70;99.90;;;;;;6001348;23;20508;-95
2022/01/18 08:07:54;;;;;;;21.27;5.90;;;6.70;99.90;;;;;;5973776;23;20021;-95
2022/01/18 08:10:30;;;;;;;19.27;5.97;;;6.70;99.90;;;;;;6024386;23;20018;-94
2022/01/18 08:13:03;;;;;;;26.17;6.47;;;6.70;99.90;;;;;;5998171;23;20627;-94
2022/01/18 08:15:38;;;;;;;23.30;6.35;;;6.70;99.90;;;;;;5997113;23;20503;-94
2022/01/18 08:18:10;;;;;;;26.98;6.88;;;6.70;99.90;;;;;;5996807;23;20037;-95
2022/01/18 08:20:36;;;;;;;18.45;6.15;;;6.80;99.90;;;;;;6000247;23;20998;-94
2022/01/18 08:23:03;;;;;;;28.83;7.13;;;6.80;99.90;;;;;;6008780;23;20018;-93
2022/01/18 08:25:30;;;;;;;27.90;7.13;;;6.80;99.90;;;;;;6016436;23;20025;-95
2022/01/18 08:27:58;;;;;;;25.60;7.38;;;6.80;99.90;;;;;;6026838;23;20123;-95
2022/01/18 08:30:29;;;;;;;30.38;8.20;;;6.70;99.90;;;;;;6013455;23;20018;-96
2022/01/18 08:32:56;;;;;;;33.25;8.48;;;6.70;99.90;;;;;;6008418;23;20316;-96
2022/01/18 08:35:24;;;;;;;29.42;8.85;;;6.70;99.90;;;;;;6003580;23;20329;-95
2022/01/18 08:37:52;;;;;;;32.25;10.07;;;6.70;99.90;;;;;;6011061;23;20490;-95
2022/01/18 08:40:18;;;;;;;36.45;9.40;;;6.80;99.90;;;;;;5986695;23;20022;-95
2022/01/18 08:42:45;;;;;;;31.63;9.20;;;6.80;99.90;;;;;;6006319;23;20021;-95
2022/01/18 08:45:11;;;;;;;30.17;10.18;;;6.80;99.90;;;;;;6004769;23;20029;-95
2022/01/18 08:47:40;;;;;;;35.55;9.90;;;6.80;99.90;;;;;;6005959;23;20379;-95
2022/01/18 08:50:07;;;;;;;30.73;8.80;;;6.80;99.90;;;;;;6013602;23;20018;-96
2022/01/18 08:53:03;;;;;;;31.80;8.88;;;6.90;99.90;;;;;;6024313;23;20049;-96
2022/01/18 08:55:35;;;;;;;24.55;8.35;;;6.90;99.90;;;;;;6015873;23;20057;-96
2022/01/18 08:58:04;;;;;;;27.30;9.13;;;6.80;99.90;;;;;;5983529;23;20026;-95
2022/01/18 09:00:31;;;;;;;27.75;8.90;;;6.90;99.90;;;;;;5989557;23;20080;-94
2022/01/18 09:02:57;;;;;;;29.08;9.27;;;6.90;99.90;;;;;;6013355;23;20025;-93
2022/01/18 09:05:29;;;;;;;28.88;8.55;;;6.90;99.90;;;;;;6007375;23;20726;-93
2022/01/18 09:08:05;;;;;;;22.90;8.23;;;7.00;99.90;;;;;;6013801;23;20464;-95
2022/01/18 09:10:31;;;;;;;;;;;6.90;99.90;;;;;;6047592;23;20018;-96
2022/01/18 09:16:33;;;;;;;27.30;8.38;;;7.00;99.90;;;;;;5983652;23;20027;-96
2022/01/18 09:18:59;;;;;;;31.58;8.93;;;7.00;99.90;;;;;;6017599;23;20065;-96
2022/01/18 09:21:35;;;;;;;31.02;10.18;;;7.00;99.90;;;;;;6010857;23;20521;-96
2022/01/18 09:24:02;;;;;;;27.38;9.18;;;7.10;99.90;;;;;;6029077;23;20025;-96
2022/01/18 09:26:31;;;;;;;34.83;9.30;;;7.10;99.90;;;;;;6007090;23;20022;-95
2022/01/18 09:32:39;;;;;;;38.15;9.98;;;7.10;99.90;;;;;;6084119;23;20101;-95
2022/01/18 09:35:16;;;;;;;25.00;9.48;;;7.10;99.90;;;;;;6010431;23;20458;-95
2022/01/18 09:37:44;;;;;;;39.10;10.57;;;7.10;99.90;;;;;;6005743;23;20354;-91
2022/01/18 09:40:14;;;;;;;26.80;9.15;;;7.10;99.90;;;;;;5995569;23;20026;-93
2022/01/18 09:42:43;;;;;;;28.10;8.77;;;7.20;99.90;;;;;;6016518;23;20026;-93
2022/01/18 09:45:16;;;;;;;29.50;9.88;;;7.20;99.90;;;;;;6015948;23;20830;-91
2022/01/18 09:47:46;;;;;;;29.42;8.90;;;7.20;99.90;;;;;;6028042;23;20263;-93
2022/01/18 09:50:15;;;;;;;26.67;9.38;;;7.30;99.90;;;;;;5972052;23;20184;-94
2022/01/18 09:55:13;;;;;;;25.63;10.20;;;7.20;99.90;;;;;;5975554;23;20031;-93
2022/01/18 09:57:51;;;;;;;23.27;10.07;;;7.20;99.90;;;;;;5949657;23;20193;-96
2022/01/18 10:00:21;;;;;;;23.52;9.80;;;7.20;99.90;;;;;;5898913;23;20042;-92
2022/01/18 10:02:48;;;;;;;22.20;8.75;;;7.20;99.90;;;;;;5899294;23;20095;-95
2022/01/18 10:05:32;;;;;;;32.90;10.68;;;7.10;99.90;;;;;;5921978;23;20030;-96
2022/01/18 10:08:06;;;;;;;24.85;9.50;;;7.20;99.90;;;;;;5914893;23;20035;-94
2022/01/18 10:10:38;;;;;;;21.85;8.60;;;7.20;99.90;;;;;;5917582;23;20310;-95
2022/01/18 10:13:05;;;;;;;19.63;8.75;;;7.30;99.90;;;;;;5919576;23;20023;-93
2022/01/18 10:15:31;;;;;;;19.73;8.23;;;7.20;99.90;;;;;;5907120;23;20027;-92
2022/01/18 10:18:31;;;;;;;26.90;8.80;;;7.30;99.90;;;;;;5901681;23;20118;-96
2022/01/18 10:21:00;;;;;;;19.08;8.80;;;7.40;99.90;;;;;;5899463;23;20019;-95
2022/01/18 10:23:26;;;;;;;21.02;8.65;;;7.20;99.90;;;;;;5921762;23;20023;-95
2022/01/18 10:26:15;;;;;;;21.50;7.82;;;7.30;99.90;;;;;;5920787;23;20023;-94
2022/01/18 10:29:01;;;;;;;19.98;8.20;;;7.40;99.90;;;;;;5931126;23;20672;-95
2022/01/18 10:37:08;;;;;;;19.38;8.82;;;7.30;99.90;;;;;;5942803;23;20031;-95
2022/01/18 10:39:36;;;;;;;21.38;8.15;;;7.30;99.90;;;;;;5920089;23;20030;-94
2022/01/18 10:42:33;;;;;;;36.67;8.70;;;7.40;99.90;;;;;;5931350;23;20098;-91
2022/01/18 10:45:14;;;;;;;21.75;8.35;;;7.40;99.90;;;;;;5926643;23;20106;-93
2022/01/18 10:47:57;;;;;;;17.70;7.65;;;7.50;99.90;;;;;;5952990;23;20034;-92
2022/01/18 10:50:46;;;;;;;20.38;7.70;;;7.40;99.90;;;;;;5921555;23;20015;-96
2022/01/18 10:53:20;;;;;;;17.30;7.53;;;7.50;99.90;;;;;;5932727;23;20042;-93
2022/01/18 10:56:03;;;;;;;18.17;7.82;;;7.50;99.90;;;;;;5920323;23;20031;-95
2022/01/18 10:58:54;;;;;;;16.27;7.25;;;7.40;99.90;;;;;;5929741;23;20162;-94
2022/01/18 11:01:29;;;;;;;19.55;7.40;;;7.60;99.90;;;;;;5929511;23;20532;-95
2022/01/18 11:04:14;;;;;;;20.10;8.23;;;7.60;99.90;;;;;;5927015;23;20023;-96
2022/01/18 11:07:01;;;;;;;21.33;8.73;;;7.60;99.90;;;;;;5916439;23;20508;-96
2022/01/18 11:09:31;;;;;;;16.55;7.30;;;7.60;99.90;;;;;;5897494;23;20019;-95
2022/01/18 11:12:06;;;;;;;18.23;7.43;;;7.60;99.90;;;;;;5915419;23;20107;-93
2022/01/18 11:14:38;;;;;;;17.10;6.80;;;7.70;99.90;;;;;;5905562;23;20566;-94
2022/01/18 11:17:23;;;;;;;14.13;6.70;;;7.70;99.90;;;;;;5895168;23;20020;-94
2022/01/18 11:19:51;;;;;;;15.57;7.32;;;7.60;99.90;;;;;;5914427;23;20466;-95
2022/01/18 11:22:17;;;;;;;16.73;6.60;;;7.60;99.90;;;;;;5918129;23;20023;-94
2022/01/18 11:24:49;;;;;;;16.17;6.68;;;7.70;99.90;;;;;;5914588;23;20862;-96
2022/01/18 11:27:19;;;;;;;15.32;6.38;;;7.70;99.90;;;;;;5914755;23;20063;-94
2022/01/18 11:29:49;;;;;;;14.70;6.80;;;7.70;99.90;;;;;;5927818;23;20084;-95
2022/01/18 11:35:21;;;;;;;11.88;5.88;;;7.70;99.90;;;;;;5944865;23;20729;-94
2022/01/18 11:38:22;;;;;;;13.82;5.82;;;7.70;99.90;;;;;;5913740;23;20180;-94
2022/01/18 11:40:57;;;;;;;15.75;6.18;;;7.80;99.90;;;;;;5915002;23;20458;-94
2022/01/18 11:43:43;;;;;;;13.57;5.85;;;7.80;99.90;;;;;;5895468;23;20627;-95
2022/01/18 11:46:30;;;;;;;14.75;5.88;;;7.80;99.90;;;;;;5912898;23;20027;-93
2022/01/18 11:49:31;;;;;;;12.68;5.93;;;7.70;99.90;;;;;;5919424;23;20176;-95
2022/01/18 11:52:11;;;;;;;13.05;5.60;;;7.80;99.90;;;;;;5909667;23;20091;-95
2022/01/18 11:57:44;;;;;;;12.85;5.63;;;7.80;99.90;;;;;;5893822;23;20031;-95
2022/01/18 12:00:23;;;;;;;16.83;5.68;;;7.90;99.90;;;;;;5896379;23;20028;-95
2022/01/18 12:03:17;;;;;;;13.32;5.70;;;7.90;99.90;;;;;;5892884;23;20942;-95
2022/01/18 12:05:43;;;;;;;15.35;5.75;;;7.90;99.90;;;;;;5888475;23;20063;-92
2022/01/18 12:08:30;;;;;;;14.30;5.55;;;8.00;99.90;;;;;;5883589;23;20055;-93
2022/01/18 12:10:57;;;;;;;13.23;5.93;;;7.90;99.90;;;;;;5891443;23;20019;-93
2022/01/18 12:13:25;;;;;;;13.25;5.70;;;7.90;99.90;;;;;;5910338;23;20020;-94
2022/01/18 12:15:57;;;;;;;11.98;5.88;;;8.00;99.90;;;;;;5892713;23;20338;-93
2022/01/18 12:18:29;;;;;;;14.27;5.85;;;8.00;99.90;;;;;;5891499;23;20373;-95
2022/01/18 12:21:04;;;;;;;16.63;5.97;;;8.00;99.90;;;;;;5901760;23;20529;-96
2022/01/18 12:23:36;;;;;;;15.13;6.25;;;7.90;99.90;;;;;;5890366;23;20072;-95
2022/01/18 12:26:32;;;;;;;13.18;5.13;;;7.90;99.90;;;;;;5892779;23;20030;-96
2022/01/18 12:29:35;;;;;;;13.40;5.00;;;8.00;99.90;;;;;;5890408;23;20024;-95
2022/01/18 12:32:19;;;;;;;11.93;4.63;;;7.90;99.90;;;;;;5893987;23;20027;-94
2022/01/18 12:34:48;;;;;;;17.23;4.20;;;8.00;99.90;;;;;;5885911;23;20028;-93
2022/01/18 12:37:16;;;;;;;13.90;5.13;;;8.00;99.90;;;;;;5888008;23;20027;-95
2022/01/18 12:39:55;;;;;;;13.15;4.65;;;7.90;99.90;;;;;;5896759;23;20125;-95
2022/01/18 12:45:20;;;;;;;12.35;4.10;;;7.80;99.90;;;;;;5912869;23;20325;-95
2022/01/18 12:48:09;;;;;;;16.58;5.30;;;7.80;99.90;;;;;;5871355;23;20074;-93
2022/01/18 12:50:53;;;;;;;14.98;5.40;;;7.60;99.90;;;;;;5910800;23;20351;-96
2022/01/18 12:53:25;;;;;;;15.00;4.78;;;7.60;99.90;;;;;;5888449;23;20059;-90
2022/01/18 12:55:57;;;;;;;11.50;4.70;;;7.60;99.90;;;;;;5911975;23;20626;-96
2022/01/18 12:58:35;;;;;;;11.98;4.38;;;7.60;99.90;;;;;;5916221;23;20757;-95
2022/01/18 13:01:07;;;;;;;12.77;4.68;;;7.60;99.90;;;;;;5916094;23;20049;-95
2022/01/18 13:03:48;;;;;;;14.00;5.30;;;7.60;99.90;;;;;;5918556;23;21038;-95
2022/01/18 13:06:20;;;;;;;14.32;4.78;;;7.50;99.90;;;;;;5916306;23;20187;-96
2022/01/18 13:09:01;;;;;;;11.77;5.32;;;7.60;99.90;;;;;;5909040;23;20026;-94
2022/01/18 13:11:42;;;;;;;15.05;4.88;;;7.50;99.90;;;;;;5924992;23;20034;-95
2022/01/18 13:14:15;;;;;;;13.40;4.63;;;7.50;99.90;;;;;;5917255;23;20433;-95
2022/01/18 13:25:14;;;;;;;14.45;4.03;;;7.50;99.90;;;;;;5956660;23;20027;-94
2022/01/18 13:27:46;;;;;;;16.85;4.55;;;7.60;99.90;;;;;;5919656;23;20031;-93
2022/01/18 13:30:26;;;;;;;14.13;3.90;;;7.60;99.90;;;;;;5908647;23;20019;-90
2022/01/18 13:32:56;;;;;;;12.43;3.70;;;7.60;99.90;;;;;;5932136;23;20027;-95
2022/01/18 13:35:25;;;;;;;16.83;3.80;;;7.60;99.90;;;;;;5914082;23;20023;-93
2022/01/18 13:37:51;;;;;;;13.20;3.95;;;7.60;99.90;;;;;;5927107;23;20027;-94
2022/01/18 13:40:20;;;;;;;11.88;3.90;;;7.60;99.90;;;;;;5904174;23;20546;-95
2022/01/18 13:43:01;;;;;;;14.25;3.33;;;7.70;99.90;;;;;;5896878;23;20027;-94
2022/01/18 13:45:31;;;;;;;15.40;3.88;;;7.60;99.90;;;;;;5923038;23;20217;-95
2022/01/18 13:48:01;;;;;;;14.48;4.47;;;7.60;99.90;;;;;;5933699;23;20027;-96
2022/01/18 13:50:29;;;;;;;12.73;4.18;;;7.60;99.90;;;;;;5922479;23;20177;-95
2022/01/18 13:53:07;;;;;;;13.70;4.53;;;7.60;99.90;;;;;;5916199;23;20539;-92
2022/01/18 13:55:35;;;;;;;16.45;4.25;;;7.70;99.90;;;;;;5920174;23;20070;-94
2022/01/18 13:58:04;;;;;;;17.27;4.60;;;7.60;99.90;;;;;;5918042;23;20030;-94
2022/01/18 14:00:31;;;;;;;12.73;4.13;;;7.50;99.90;;;;;;5918699;23;20351;-94
2022/01/18 14:02:57;;;;;;;17.20;4.28;;;7.60;99.90;;;;;;5923889;23;20023;-94
2022/01/18 14:05:27;;;;;;;13.23;4.00;;;7.60;99.90;;;;;;5923042;23;20163;-95
2022/01/18 14:08:33;;;;;;;13.77;3.95;;;7.60;99.90;;;;;;5921585;23;20347;-95
2022/01/18 14:11:03;;;;;;;15.32;4.20;;;7.50;99.90;;;;;;5897450;23;20764;-94
2022/01/18 14:13:35;;;;;;;13.20;3.92;;;7.50;99.90;;;;;;5952113;23;20830;-93
2022/01/18 14:16:23;;;;;;;17.10;4.88;;;7.60;99.90;;;;;;5923900;23;20030;-95
2022/01/18 14:19:12;;;;;;;15.32;4.35;;;7.50;99.90;;;;;;5897981;23;20023;-95
2022/01/18 14:21:47;;;;;;;15.02;4.50;;;7.50;99.90;;;;;;5922242;23;20478;-96
2022/01/18 14:24:41;;;;;;;17.20;4.30;;;7.50;99.90;;;;;;5924812;23;20189;-95
2022/01/18 14:27:10;;;;;;;13.70;3.95;;;7.40;99.90;;;;;;5919732;23;20649;-93
2022/01/18 14:29:42;;;;;;;12.50;3.80;;;7.30;99.90;;;;;;5918970;23;20027;-94
2022/01/18 14:32:25;;;;;;;15.05;4.63;;;7.30;99.90;;;;;;5922196;23;20034;-93
2022/01/18 14:34:59;;;;;;;12.90;4.57;;;7.30;99.90;;;;;;5919079;23;20020;-92
2022/01/18 14:37:47;;;;;;;13.77;4.93;;;7.30;99.90;;;;;;5912119;23;20026;-94
2022/01/18 14:41:05;;;;;;;16.95;5.20;;;7.30;99.90;;;;;;5931440;23;20023;-95
2022/01/18 14:43:37;;;;;;;15.32;4.78;;;7.30;99.90;;;;;;5948670;23;20393;-94
2022/01/18 14:46:18;;;;;;;14.70;5.30;;;7.20;99.90;;;;;;5915384;23;20135;-95
2022/01/18 14:48:44;;;;;;;15.75;5.57;;;7.20;99.90;;;;;;5918449;23;21139;-94
2022/01/18 14:51:17;;;;;;;13.25;4.93;;;7.00;99.90;;;;;;5923572;23;20517;-93
2022/01/18 14:53:46;;;;;;;12.15;4.28;;;7.00;99.90;;;;;;5915101;23;20091;-94
2022/01/18 14:56:12;;;;;;;14.43;5.43;;;7.00;99.90;;;;;;5916646;23;20130;-93
2022/01/18 14:58:38;;;;;;;11.00;4.80;;;6.90;99.90;;;;;;5921947;23;20031;-93
2022/01/18 15:01:07;;;;;;;13.63;5.57;;;6.90;99.90;;;;;;5931547;23;20211;-94
2022/01/18 15:03:33;;;;;;;14.00;5.60;;;6.90;99.90;;;;;;5920382;23;20143;-92
2022/01/18 15:05:59;;;;;;;17.95;5.78;;;6.80;99.90;;;;;;5895402;23;20345;-95
2022/01/18 15:08:27;;;;;;;14.05;6.22;;;6.80;99.90;;;;;;5914612;23;20035;-94
2022/01/18 15:10:56;;;;;;;17.33;6.50;;;6.70;99.90;;;;;;5907207;23;20039;-96